Flight Information

DEPARTURE
,
Elevation:
DESTINATION
MADERA, CA
Elevation:
255
TPA:
1255 (est.)
Runways:
12/30 - 5545x150 - ASPH-G
CTAF:
122.800


6817.2 NM311° True-66° Var245° HDG

Flight Plan:
(click to file on line)

1. Type
2. Aircraft Identification
3. Aircraft Type / Special Equipment
4. True Airspeed
kts
5. Departure Airport
(ICAO code)
6. Arriving Airport
(ICAO code)
7. Cruising Altitude
ft
8. Alternate Airport
(ICAO code)
9. Route of Flight
10. Remarks


00:00:00 Departure ATIS: Destination ATIS:

Clearance Limit:
Route:
Altitude: Expect in minutes
Frequency:
Transponder: (7500 Hijack / 7600 Lost Comms / 7700 Emergency)


Time:
1656253412
Visibility: sm
Clouds (AGL):
Temperature: C
Dew Point: C
Pressure: in Hgbr

KMAE 261353Z AUTO 32004KT 10SM CLR 21/09 A2995 RMK AO2 SLP137 T02060089
Time: 2022-06-26T13:53:00Z
1656253412
Winds: 320 @ 4 kts
Visibility: 10.0 sm
Clouds (AGL): CLR
Temperature: 20.6 C
Dew Point: 8.9 C
Pressure: 29.949802 in Hgbr


Notes:

Data extracted from FAA Digital Chart Supplement. Effective: 0901Z Thursday, 27 JAN 2022 to 0900z Thursday, 24 MAR 2022
Current ATIS data is provided courtisy of PilotEdge.